createdAt,value
2019-03-23T00:01:15.903Z,4.50
2019-03-23T00:03:44.936Z,4.50
2019-03-23T00:06:15.215Z,4.50
2019-03-23T00:08:46.385Z,4.50
2019-03-23T00:11:16.096Z,4.50
2019-03-23T00:13:46.390Z,4.50
2019-03-23T00:16:16.938Z,4.50
2019-03-23T00:18:46.035Z,4.50
2019-03-23T00:21:15.057Z,4.50
2019-03-23T00:23:43.848Z,4.60
2019-03-23T00:26:14.463Z,4.60
2019-03-23T00:28:44.772Z,4.50
2019-03-23T00:31:15.306Z,4.50
2019-03-23T00:33:44.809Z,4.40
2019-03-23T00:36:15.343Z,4.40
2019-03-23T00:38:44.453Z,4.30
2019-03-23T00:41:14.848Z,4.30
2019-03-23T00:43:45.139Z,4.40
2019-03-23T00:46:15.619Z,4.40
2019-03-23T00:48:44.596Z,4.40
2019-03-23T00:51:13.913Z,4.40
2019-03-23T00:53:44.166Z,4.40
2019-03-23T00:56:16.511Z,4.40
2019-03-23T00:58:45.513Z,4.40
2019-03-23T01:01:15.120Z,4.40
2019-03-23T01:03:45.642Z,4.40
2019-03-23T01:06:15.884Z,4.30
2019-03-23T01:08:44.834Z,4.30
2019-03-23T01:11:13.620Z,4.30
2019-03-23T01:13:42.959Z,4.20
2019-03-23T01:16:13.165Z,4.20
2019-03-23T01:18:41.944Z,4.10
2019-03-23T01:21:12.185Z,4.10
2019-03-23T01:23:42.430Z,4.00
2019-03-23T01:26:11.667Z,4.00
2019-03-23T01:28:40.816Z,3.90
2019-03-23T01:31:11.437Z,3.80
2019-03-23T01:33:42.116Z,3.80
2019-03-23T01:36:12.611Z,3.70
2019-03-23T01:38:43.649Z,3.70
2019-03-23T01:41:14.286Z,3.60
2019-03-23T01:43:44.578Z,3.40
2019-03-23T01:46:13.593Z,3.30
2019-03-23T01:48:42.794Z,3.20
2019-03-23T01:51:13.337Z,3.20
2019-03-23T01:53:43.611Z,3.10
2019-03-23T01:56:13.841Z,3.00
2019-03-23T01:58:44.500Z,2.90
2019-03-23T02:01:13.283Z,2.80
2019-03-23T02:03:42.488Z,2.70
2019-03-23T02:06:12.759Z,2.70
2019-03-23T02:08:43.004Z,2.70
2019-03-23T02:11:12.718Z,2.70
2019-03-23T02:13:43.702Z,2.70
2019-03-23T02:16:12.478Z,2.60
2019-03-23T02:18:42.749Z,2.60
2019-03-23T02:21:11.774Z,2.70
2019-03-23T02:23:40.895Z,2.80
2019-03-23T02:26:09.684Z,2.90
2019-03-23T02:28:40.940Z,2.90
2019-03-23T02:31:10.027Z,2.90
2019-03-23T02:33:39.271Z,2.90
2019-03-23T02:36:09.873Z,2.90
2019-03-23T02:38:40.054Z,2.80
2019-03-23T02:41:09.179Z,2.80
2019-03-23T02:43:38.387Z,2.80
2019-03-23T02:46:07.783Z,2.70
2019-03-23T02:48:38.317Z,2.70
2019-03-23T02:51:08.946Z,2.70
2019-03-23T02:53:39.586Z,2.70
2019-03-23T02:56:10.113Z,2.80
2019-03-23T02:58:39.923Z,2.90
2019-03-23T03:01:10.183Z,3.00
2019-03-23T03:03:38.892Z,3.00
2019-03-23T03:06:07.703Z,3.10
2019-03-23T03:08:37.105Z,3.10
2019-03-23T03:11:07.665Z,3.20
2019-03-23T03:13:36.473Z,3.20
2019-03-23T03:16:05.651Z,3.30
2019-03-23T03:18:36.287Z,3.30
2019-03-23T03:21:06.575Z,3.30
2019-03-23T03:23:37.135Z,3.30
2019-03-23T03:26:07.381Z,3.30
2019-03-23T03:28:37.995Z,3.20
2019-03-23T03:31:08.168Z,3.10
2019-03-23T03:33:38.746Z,3.20
2019-03-23T03:36:08.049Z,3.30
2019-03-23T03:38:38.301Z,3.30
2019-03-23T03:41:08.475Z,3.30
2019-03-23T03:43:37.459Z,3.40
2019-03-23T03:46:07.703Z,3.40
2019-03-23T03:48:36.525Z,3.40
2019-03-23T03:51:05.369Z,3.50
2019-03-23T03:53:34.479Z,3.50
2019-03-23T03:56:04.843Z,3.50
2019-03-23T03:58:35.440Z,3.50
2019-03-23T04:01:06.065Z,3.40
2019-03-23T04:03:35.179Z,3.40
2019-03-23T04:06:05.697Z,3.40
2019-03-23T04:08:34.794Z,3.40
2019-03-23T04:11:03.990Z,3.50
2019-03-23T04:13:33.094Z,3.50
2019-03-23T04:16:02.301Z,3.60
2019-03-23T04:18:32.422Z,3.70
2019-03-23T04:21:03.047Z,3.70
2019-03-23T04:23:33.575Z,3.80
2019-03-23T04:26:04.302Z,3.80
2019-03-23T04:28:33.007Z,3.80
2019-03-23T04:31:03.296Z,3.90
2019-03-23T04:33:32.207Z,3.80
2019-03-23T04:36:01.367Z,3.90
2019-03-23T04:38:30.163Z,3.90
2019-03-23T04:41:00.419Z,3.90
2019-03-23T04:43:29.164Z,3.90
2019-03-23T04:46:00.041Z,3.90
2019-03-23T04:48:30.293Z,3.90
2019-03-23T04:51:00.903Z,3.90
2019-03-23T04:53:29.687Z,3.90
2019-03-23T04:55:58.477Z,3.90
2019-03-23T04:58:29.020Z,3.80
2019-03-23T05:00:59.186Z,3.80
2019-03-23T05:03:28.332Z,3.70
2019-03-23T05:05:57.458Z,3.70
2019-03-23T05:08:33.407Z,3.60
2019-03-23T05:11:00.120Z,3.60
2019-03-23T05:13:30.749Z,3.60
2019-03-23T05:16:01.064Z,3.60
2019-03-23T05:18:31.334Z,3.60
2019-03-23T05:21:00.124Z,3.60
2019-03-23T05:23:30.722Z,3.60
2019-03-23T05:25:59.733Z,3.50
2019-03-23T05:28:30.252Z,3.40
2019-03-23T05:30:59.656Z,3.30
2019-03-23T05:33:29.952Z,3.40
2019-03-23T05:36:00.514Z,3.30
2019-03-23T05:38:31.144Z,3.30
2019-03-23T05:41:00.340Z,3.30
2019-03-23T05:43:30.966Z,3.40
2019-03-23T05:46:01.429Z,3.40
2019-03-23T05:48:32.038Z,3.40
2019-03-23T05:51:02.247Z,3.50
2019-03-23T05:53:32.787Z,3.50
2019-03-23T05:56:03.046Z,3.50
2019-03-23T05:58:33.659Z,3.60
2019-03-23T06:01:04.277Z,3.60
2019-03-23T06:03:34.907Z,3.50
2019-03-23T06:06:05.430Z,3.50
2019-03-23T06:08:35.897Z,3.60
2019-03-23T06:11:06.117Z,3.60
2019-03-23T06:13:35.283Z,3.50
2019-03-23T06:16:05.815Z,3.60
2019-03-23T06:18:36.343Z,3.60
2019-03-23T06:21:07.038Z,3.50
2019-03-23T06:23:35.758Z,3.50
2019-03-23T06:26:06.498Z,3.40
2019-03-23T06:28:36.914Z,3.50
2019-03-23T06:31:07.163Z,3.50
2019-03-23T06:33:37.440Z,3.50
2019-03-23T06:36:08.002Z,3.40
2019-03-23T06:38:38.262Z,3.40
2019-03-23T06:41:08.482Z,3.30
2019-03-23T06:43:37.541Z,3.50
2019-03-23T06:46:08.179Z,3.60
2019-03-23T06:48:37.689Z,3.80
2019-03-23T06:51:08.206Z,3.80
2019-03-23T06:53:38.742Z,3.90
2019-03-23T06:56:09.480Z,4.00
2019-03-23T06:58:39.738Z,4.10
2019-03-23T07:01:10.226Z,4.30
2019-03-23T07:03:40.863Z,4.60
2019-03-23T07:06:11.489Z,4.70
2019-03-23T07:08:41.781Z,5.00
2019-03-23T07:11:12.028Z,5.30
2019-03-23T07:13:42.243Z,5.60
2019-03-23T07:16:12.794Z,5.90
2019-03-23T07:18:43.422Z,6.30
2019-03-23T07:21:14.062Z,6.70
2019-03-23T07:23:44.689Z,7.10
2019-03-23T07:26:15.324Z,7.40
2019-03-23T07:28:45.855Z,7.70
2019-03-23T07:31:16.142Z,8.10
2019-03-23T07:33:46.389Z,8.40
2019-03-23T07:36:15.501Z,8.80
2019-03-23T07:38:45.741Z,9.30
2019-03-23T07:41:15.958Z,9.30
2019-03-23T07:43:46.131Z,9.40
2019-03-23T07:46:16.394Z,9.50
2019-03-23T07:48:46.685Z,9.40
2019-03-23T07:51:16.973Z,9.90
2019-03-23T07:53:47.462Z,10.00
2019-03-23T07:56:18.105Z,10.30
2019-03-23T07:58:49.045Z,10.30
2019-03-23T08:01:20.947Z,10.60
2019-03-23T08:03:51.535Z,11.00
2019-03-23T08:06:21.904Z,11.00
2019-03-23T08:08:52.149Z,11.30
2019-03-23T08:11:22.408Z,11.50
2019-03-23T08:13:53.043Z,11.30
2019-03-23T08:16:23.697Z,11.50
2019-03-23T08:18:54.305Z,11.80
2019-03-23T08:21:24.563Z,11.90
2019-03-23T08:23:55.021Z,12.20
2019-03-23T08:26:25.287Z,12.50
2019-03-23T08:28:55.915Z,12.40
2019-03-23T08:31:26.088Z,12.70
2019-03-23T08:33:56.775Z,12.70
2019-03-23T08:36:27.710Z,12.70
2019-03-23T08:38:57.977Z,12.90
2019-03-23T08:41:27.040Z,13.10
2019-03-23T08:43:58.074Z,13.00
2019-03-23T08:46:27.786Z,13.20
2019-03-23T08:48:58.075Z,13.40
2019-03-23T08:51:28.405Z,13.30
2019-03-23T08:53:58.656Z,13.60
2019-03-23T08:56:28.950Z,13.60
2019-03-23T08:58:57.850Z,13.40
2019-03-23T09:01:28.409Z,13.80
2019-03-23T09:03:57.197Z,13.60
2019-03-23T09:06:28.255Z,13.60
2019-03-23T09:08:58.475Z,13.50
2019-03-23T09:11:28.773Z,13.70
2019-03-23T09:13:57.481Z,14.00
2019-03-23T09:16:27.719Z,14.20
2019-03-23T09:18:56.789Z,14.40
2019-03-23T09:21:27.422Z,14.50
2019-03-23T09:23:56.513Z,14.80
2019-03-23T09:26:27.060Z,15.10
2019-03-23T09:28:57.319Z,15.30
2019-03-23T09:31:27.910Z,14.70
2019-03-23T09:33:56.646Z,15.00
2019-03-23T09:36:26.863Z,15.20
2019-03-23T09:38:56.023Z,14.70
2019-03-23T09:41:26.652Z,14.50
2019-03-23T09:43:57.283Z,14.40
2019-03-23T09:46:26.215Z,14.70
2019-03-23T09:48:54.960Z,14.60
2019-03-23T09:51:23.812Z,14.40
2019-03-23T09:53:54.075Z,14.40
2019-03-23T09:56:23.171Z,14.10
2019-03-23T09:58:53.800Z,14.30
2019-03-23T10:01:24.787Z,14.20
2019-03-23T10:03:53.481Z,14.50
2019-03-23T10:06:22.624Z,15.00
2019-03-23T10:08:51.736Z,14.80
2019-03-23T10:11:20.559Z,14.90
2019-03-23T10:13:51.162Z,15.00
2019-03-23T10:16:21.329Z,15.30
2019-03-23T10:18:51.903Z,15.10
2019-03-23T10:21:21.114Z,15.30
2019-03-23T10:23:51.631Z,15.30
2019-03-23T10:26:21.041Z,15.60
2019-03-23T10:28:51.661Z,15.10
2019-03-23T10:31:21.881Z,14.40
2019-03-23T10:33:53.351Z,14.30
2019-03-23T10:36:23.979Z,13.80
2019-03-23T10:38:53.283Z,12.70
2019-03-23T10:41:22.540Z,12.40
2019-03-23T10:43:53.067Z,12.40
2019-03-23T10:46:22.308Z,12.40
2019-03-23T10:48:51.569Z,12.30
2019-03-23T10:51:22.146Z,12.70
2019-03-23T10:53:53.077Z,13.00
2019-03-23T10:56:22.243Z,13.20
2019-03-23T10:58:51.205Z,13.70
2019-03-23T11:01:21.507Z,13.90
2019-03-23T11:03:51.687Z,14.60
2019-03-23T11:06:21.950Z,15.20
2019-03-23T11:08:51.138Z,15.30
2019-03-23T11:11:21.672Z,15.60
2019-03-23T11:13:50.868Z,15.20
2019-03-23T11:16:21.403Z,14.80
2019-03-23T11:18:50.916Z,15.10
2019-03-23T11:21:21.176Z,15.40
2019-03-23T11:23:51.567Z,15.40
2019-03-23T11:26:20.677Z,15.50
2019-03-23T11:28:49.494Z,16.20
2019-03-23T11:31:20.165Z,16.20
2019-03-23T11:33:50.426Z,16.40
2019-03-23T11:36:21.131Z,16.40
2019-03-23T11:38:51.768Z,16.30
2019-03-23T11:41:22.023Z,16.80
2019-03-23T11:43:52.618Z,16.70
2019-03-23T11:46:23.260Z,16.70
2019-03-23T11:48:53.433Z,16.50
2019-03-23T11:51:23.731Z,16.50
2019-03-23T11:53:54.231Z,16.80
2019-03-23T11:56:23.324Z,16.90
2019-03-23T11:58:54.129Z,16.80
2019-03-23T12:01:24.690Z,17.10
2019-03-23T12:03:56.148Z,17.60
2019-03-23T12:06:26.775Z,17.50
2019-03-23T12:08:56.951Z,17.80
2019-03-23T12:11:27.421Z,17.80
2019-03-23T12:13:57.922Z,17.60
2019-03-23T12:16:26.637Z,17.50
2019-03-23T12:18:57.272Z,17.40
2019-03-23T12:21:27.910Z,18.00
2019-03-23T12:23:58.551Z,17.60
2019-03-23T12:26:28.720Z,17.60
2019-03-23T12:28:59.502Z,17.10
2019-03-23T12:31:28.692Z,16.80
2019-03-23T12:33:57.811Z,16.60
2019-03-23T12:36:26.996Z,17.20
2019-03-23T12:38:55.700Z,17.30
2019-03-23T12:41:26.210Z,17.20
2019-03-23T12:43:54.999Z,17.40
2019-03-23T12:46:25.638Z,17.30
2019-03-23T12:48:55.883Z,17.30
2019-03-23T12:51:26.497Z,17.50
2019-03-23T12:53:57.122Z,17.60
2019-03-23T12:56:27.653Z,17.60
2019-03-23T12:58:58.287Z,17.70
2019-03-23T13:01:27.247Z,16.80
2019-03-23T13:03:57.428Z,16.80
2019-03-23T13:06:26.255Z,17.00
2019-03-23T13:08:56.923Z,17.50
2019-03-23T13:11:34.801Z,17.80
2019-03-23T13:13:56.754Z,17.00
2019-03-23T13:16:27.053Z,16.80
2019-03-23T13:18:57.612Z,16.10
2019-03-23T13:21:28.258Z,15.20
2019-03-23T13:23:57.863Z,14.80
2019-03-23T13:26:26.945Z,14.40
2019-03-23T13:28:57.225Z,14.10
2019-03-23T13:31:27.905Z,13.60
2019-03-23T13:33:58.557Z,13.30
2019-03-23T13:36:28.764Z,13.20
2019-03-23T13:38:59.402Z,13.30
2019-03-23T13:41:29.694Z,14.00
2019-03-23T13:44:00.090Z,14.70
2019-03-23T13:46:29.243Z,15.30
2019-03-23T13:48:58.641Z,15.90
2019-03-23T13:51:28.836Z,15.90
2019-03-23T13:53:59.409Z,16.20
2019-03-23T13:56:28.598Z,16.70
2019-03-23T13:58:57.394Z,17.10
2019-03-23T14:01:28.017Z,17.40
2019-03-23T14:03:57.320Z,17.80
2019-03-23T14:06:27.846Z,17.70
2019-03-23T14:08:58.220Z,17.20
2019-03-23T14:11:28.448Z,16.40
2019-03-23T14:13:57.603Z,15.90
2019-03-23T14:16:26.683Z,15.70
2019-03-23T14:18:55.753Z,16.10
2019-03-23T14:21:24.783Z,16.30
2019-03-23T14:23:55.252Z,16.10
2019-03-23T14:26:24.335Z,16.10
2019-03-23T14:28:54.533Z,15.90
2019-03-23T14:31:23.456Z,15.70
2019-03-23T14:33:53.827Z,15.80
2019-03-23T14:36:24.382Z,15.60
2019-03-23T14:38:54.677Z,15.10
2019-03-23T14:41:24.113Z,15.10
2019-03-23T14:43:52.936Z,15.10
2019-03-23T14:46:22.000Z,15.20
2019-03-23T14:48:51.089Z,15.10
2019-03-23T14:51:21.359Z,14.70
2019-03-23T14:53:51.948Z,14.00
2019-03-23T14:56:22.129Z,13.40
2019-03-23T14:58:51.167Z,13.10
2019-03-23T15:01:21.694Z,12.70
2019-03-23T15:03:52.322Z,12.40
2019-03-23T15:06:21.500Z,12.50
2019-03-23T15:08:52.056Z,12.60
2019-03-23T15:11:22.586Z,12.60
2019-03-23T15:13:53.211Z,12.60
2019-03-23T15:16:22.619Z,12.70
2019-03-23T15:18:51.721Z,13.10
2019-03-23T15:21:20.920Z,13.40
2019-03-23T15:23:49.665Z,13.80
2019-03-23T15:26:19.920Z,14.00
2019-03-23T15:28:49.025Z,13.90
2019-03-23T15:31:19.657Z,13.80
2019-03-23T15:33:50.176Z,13.40
2019-03-23T15:36:20.818Z,13.20
2019-03-23T15:38:51.085Z,12.90
2019-03-23T15:41:21.879Z,12.80
2019-03-23T15:43:52.521Z,12.80
2019-03-23T15:46:22.765Z,12.60
2019-03-23T15:48:51.826Z,12.40
2019-03-23T15:51:22.197Z,12.40
2019-03-23T15:53:51.356Z,12.30
2019-03-23T15:56:21.034Z,12.30
2019-03-23T15:58:51.595Z,12.30
2019-03-23T16:01:23.263Z,12.40
2019-03-23T16:03:52.580Z,12.50
2019-03-23T16:06:21.854Z,12.60
2019-03-23T16:08:50.954Z,12.60
2019-03-23T16:11:19.758Z,12.50
2019-03-23T16:13:49.973Z,12.30
2019-03-23T16:16:20.239Z,12.10
2019-03-23T16:18:49.489Z,12.00
2019-03-23T16:21:18.324Z,12.00
2019-03-23T16:23:47.223Z,11.90
2019-03-23T16:26:16.372Z,11.80
2019-03-23T16:28:45.671Z,11.80
2019-03-23T16:31:14.455Z,11.80
2019-03-23T16:33:44.709Z,11.70
2019-03-23T16:36:13.545Z,11.60
2019-03-23T16:38:42.557Z,11.60
2019-03-23T16:41:12.743Z,11.50
2019-03-23T16:43:41.987Z,11.40
2019-03-23T16:46:12.540Z,11.40
2019-03-23T16:48:41.325Z,11.20
2019-03-23T16:51:10.611Z,11.00
2019-03-23T16:53:39.396Z,10.90
2019-03-23T16:56:09.945Z,10.80
2019-03-23T16:58:38.774Z,10.70
2019-03-23T17:01:07.544Z,10.60
2019-03-23T17:03:36.346Z,10.50
2019-03-23T17:06:05.176Z,10.40
2019-03-23T17:08:33.980Z,10.30
2019-03-23T17:11:02.770Z,10.20
2019-03-23T17:13:31.706Z,10.20
2019-03-23T17:16:02.191Z,10.00
2019-03-23T17:18:30.979Z,10.00
2019-03-23T17:20:59.810Z,10.00
2019-03-23T17:23:28.995Z,9.90
2019-03-23T17:25:58.147Z,9.90
2019-03-23T17:28:26.963Z,9.90
2019-03-23T17:30:56.061Z,9.80
2019-03-23T17:33:25.354Z,9.70
2019-03-23T17:35:54.132Z,9.60
2019-03-23T17:38:24.761Z,9.40
2019-03-23T17:40:53.870Z,9.30
2019-03-23T17:43:22.653Z,9.20
2019-03-23T17:45:53.300Z,9.20
2019-03-23T17:48:22.111Z,9.10
2019-03-23T17:50:51.166Z,9.00
2019-03-23T17:53:19.941Z,9.00
2019-03-23T17:55:49.059Z,9.00
2019-03-23T17:58:18.160Z,9.00
2019-03-23T18:00:47.255Z,8.90
2019-03-23T18:03:16.452Z,8.90
2019-03-23T18:05:45.543Z,8.90
2019-03-23T18:08:14.742Z,8.80
2019-03-23T18:10:43.838Z,8.80
2019-03-23T18:13:16.696Z,8.70
2019-03-23T18:15:43.188Z,8.60
2019-03-23T18:18:12.371Z,8.60
2019-03-23T18:20:41.482Z,8.50
2019-03-23T18:23:10.629Z,8.40
2019-03-23T18:25:39.649Z,8.40
2019-03-23T18:28:08.425Z,8.30
2019-03-23T18:30:42.755Z,8.30
2019-03-23T18:33:11.544Z,8.20
2019-03-23T18:35:42.080Z,8.20
2019-03-23T18:38:10.994Z,8.20
2019-03-23T18:40:40.174Z,8.10
2019-03-23T18:43:09.261Z,8.00
2019-03-23T18:45:38.178Z,7.90
2019-03-23T18:48:07.570Z,7.90
2019-03-23T18:50:36.271Z,7.90
2019-03-23T18:53:05.186Z,7.90
2019-03-23T18:55:34.075Z,7.90
2019-03-23T18:58:03.242Z,7.90
2019-03-23T19:00:40.230Z,7.80
2019-03-23T19:03:09.071Z,7.80
2019-03-23T19:05:39.330Z,7.70
2019-03-23T19:08:08.525Z,7.70
2019-03-23T19:10:38.140Z,7.60
2019-03-23T19:13:06.923Z,7.50
2019-03-23T19:15:36.025Z,7.50
2019-03-23T19:18:06.158Z,7.40
2019-03-23T19:20:37.294Z,7.40
2019-03-23T19:23:06.169Z,7.40
2019-03-23T19:28:09.798Z,7.30
2019-03-23T19:30:38.893Z,7.30
2019-03-23T19:33:07.996Z,7.20
2019-03-23T19:35:40.313Z,7.20
2019-03-23T19:38:09.127Z,7.10
2019-03-23T19:40:38.310Z,7.10
2019-03-23T19:43:07.115Z,7.00
2019-03-23T19:45:36.142Z,6.90
2019-03-23T19:48:05.220Z,6.90
2019-03-23T19:50:34.336Z,6.80
2019-03-23T19:53:03.635Z,6.80
2019-03-23T19:55:32.825Z,6.70
2019-03-23T19:58:01.714Z,6.60
2019-03-23T20:00:30.824Z,6.60
2019-03-23T20:02:59.639Z,6.50
2019-03-23T20:05:28.428Z,6.50
2019-03-23T20:07:57.209Z,6.40
2019-03-23T20:10:26.399Z,6.40
2019-03-23T20:12:55.390Z,6.30
2019-03-23T20:15:24.184Z,6.30
2019-03-23T20:17:53.370Z,6.20
2019-03-23T20:20:22.685Z,6.20
2019-03-23T20:22:51.761Z,6.20
2019-03-23T20:25:22.397Z,6.20
2019-03-23T20:27:51.593Z,6.20
2019-03-23T20:30:20.486Z,6.10
2019-03-23T20:32:49.354Z,6.10
2019-03-23T20:35:18.108Z,6.10
2019-03-23T20:37:47.263Z,6.00
2019-03-23T20:40:16.050Z,6.00
2019-03-23T20:42:44.969Z,5.80
2019-03-23T20:45:16.685Z,5.70
2019-03-23T20:47:47.760Z,5.60
2019-03-23T20:50:16.698Z,5.50
2019-03-23T20:52:45.852Z,5.40
2019-03-23T20:55:29.612Z,5.30
2019-03-23T20:57:58.674Z,5.20
2019-03-23T21:00:27.774Z,5.20
2019-03-23T21:02:56.609Z,5.10
2019-03-23T21:05:33.672Z,5.10
2019-03-23T21:07:56.915Z,5.10
2019-03-23T21:10:25.751Z,5.20
2019-03-23T21:12:55.003Z,5.20
2019-03-23T21:15:24.118Z,5.20
2019-03-23T21:17:53.610Z,5.20
2019-03-23T21:20:23.777Z,5.20
2019-03-23T21:22:52.734Z,5.30
2019-03-23T21:25:22.839Z,5.30
2019-03-23T21:27:51.677Z,5.20
2019-03-23T21:30:22.000Z,5.20
2019-03-23T21:32:51.155Z,5.20
2019-03-23T21:35:19.979Z,5.10
2019-03-23T21:37:49.143Z,5.00
2019-03-23T21:40:18.239Z,5.00
2019-03-23T21:42:47.066Z,5.00
2019-03-23T21:45:16.238Z,5.00
2019-03-23T21:47:46.872Z,5.00
2019-03-23T21:50:15.640Z,5.00
2019-03-23T21:52:44.953Z,5.00
2019-03-23T21:55:14.843Z,5.00
2019-03-23T21:57:43.959Z,5.00
2019-03-23T22:00:14.803Z,4.90
2019-03-23T22:02:43.608Z,4.80
2019-03-23T22:05:12.424Z,4.60
2019-03-23T22:07:42.164Z,4.50
2019-03-23T22:10:11.388Z,4.50
2019-03-23T22:12:40.594Z,4.50
2019-03-23T22:15:10.120Z,4.60
2019-03-23T22:17:38.938Z,4.60
2019-03-23T22:20:09.517Z,4.60
2019-03-23T22:22:38.934Z,4.60
2019-03-23T22:25:08.951Z,4.50
2019-03-23T22:27:38.339Z,4.60
2019-03-23T22:30:13.481Z,4.50
2019-03-23T22:32:42.846Z,4.50
2019-03-23T22:35:11.993Z,4.50
2019-03-23T22:37:40.798Z,4.50
2019-03-23T22:40:12.840Z,4.50
2019-03-23T22:42:42.137Z,4.40
2019-03-23T22:45:11.117Z,4.40
2019-03-23T22:47:40.328Z,4.40
2019-03-23T22:50:11.370Z,4.40
2019-03-23T22:52:40.606Z,4.30
2019-03-23T22:55:11.307Z,4.30
2019-03-23T22:57:40.593Z,4.10
2019-03-23T23:00:14.153Z,4.10
2019-03-23T23:02:42.934Z,4.10
2019-03-23T23:05:13.634Z,4.10
2019-03-23T23:07:42.729Z,4.10
2019-03-23T23:10:11.820Z,4.10
2019-03-23T23:12:40.921Z,4.10
2019-03-23T23:15:09.984Z,4.10
2019-03-23T23:17:38.806Z,4.10
2019-03-23T23:20:08.662Z,4.20
2019-03-23T23:22:37.819Z,4.20
2019-03-23T23:25:08.114Z,4.20
2019-03-23T23:27:37.763Z,4.30
2019-03-23T23:30:09.310Z,4.30
2019-03-23T23:32:38.399Z,4.30
2019-03-23T23:35:09.787Z,4.30
2019-03-23T23:37:38.963Z,4.40
2019-03-23T23:40:08.667Z,4.30
2019-03-23T23:42:37.760Z,4.30
2019-03-23T23:45:15.228Z,4.30
2019-03-23T23:47:39.121Z,4.30
2019-03-23T23:50:08.337Z,4.20
2019-03-23T23:52:37.158Z,4.20
2019-03-23T23:55:06.922Z,4.20
2019-03-23T23:57:36.025Z,4.20
